Coe Leni — A8VR8 — position and weather

sailwx.info

Track history (hours):
 
Tides and Currents Weather Stations Pressure Air Temp Water Temp Dewpoint Dewpoint Depression Visibility Wind Speed Wind Dir Waves Ship Positions

Coe Leni

Last reported at 2017-Aug-23 16:59 UTC. Time now 2017-Aug-23 17:18 UTC.
Position N 51°24' E 002°34'.

Length 138 m; draft 6.7 m.

Type: Ship. MMSI: 636092036.

Date/timePositionNaut miles runAvg speedWind from/ knotsBaromVisibWave heightAir tempDewpointWater temp
2017-Aug-23 16:59N 51°24' E 002°34'0 0.0
2017-Aug-23 16:29N 51°24' E 002°34'0 0.0
2017-Aug-23 15:59N 51°24' E 002°34'0 0.0
2017-Aug-23 15:29N 51°24' E 002°34'0 0.0
2017-Aug-23 14:59N 51°24' E 002°34'0 0.0
2017-Aug-23 14:29N 51°24' E 002°34'0 0.0
2017-Aug-23 13:29N 51°24' E 002°34'0 0.0
2017-Aug-23 12:59N 51°24' E 002°34'0 0.1
2017-Aug-23 12:29N 51°24' E 002°34'3 5.6
2017-Aug-23 12:00N 51°22' E 002°31'714.9
2017-Aug-23 11:30N 51°19' E 002°20'714.9
2017-Aug-23 11:01N 51°15' E 002°10'714.2
2017-Aug-23 10:30N 51°11' E 002°00'713.5
2017-Aug-23 10:00N 51°08' E 001°51'612.5
2017-Aug-23 09:30N 51°04' E 001°43'612.1
2017-Aug-23 09:00N 50°60' E 001°36'611.9
2017-Aug-23 08:30N 50°55' E 001°30'611.6
2017-Aug-23 07:58N 50°50' E 001°26'612.2
2017-Aug-23 07:30N 50°45' E 001°22'1612.7
2017-Aug-23 06:14N 50°34' E 001°03'413.0
2017-Aug-23 05:53N 50°31' E 000°57'2412.9
2017-Aug-23 04:01N 50°24' E 000°21'012.5
2017-Aug-23 04:00N 50°24' E 000°21'612.3
2017-Aug-23 03:29N 50°22' E 000°11'612.4
2017-Aug-23 03:00N 50°21' E 000°02'612.6
2017-Aug-23 02:30N 50°19' W 000°07'612.4
2017-Aug-23 02:00N 50°17' W 000°17'1012.2
2017-Aug-23 01:11N 50°15' W 000°32'212.4
2017-Aug-23 01:00N 50°14' W 000°35'612.7
2017-Aug-23 00:31N 50°12' W 000°44'713.3
2017-Aug-23 00:00N 50°10' W 000°54'714.2
2017-Aug-22 23:31N 50°09' W 001°05'815.1
2017-Aug-22 23:01N 50°06' W 001°16'815.9
2017-Aug-22 22:31N 50°04' W 001°28'1617.0
2017-Aug-22 21:33N 49°59' W 001°52'117.0
2017-Aug-22 21:30N 49°59' W 001°54'1117.8
2017-Aug-22 20:55N 49°56' W 002°10'1517.2
2017-Aug-22 20:03N 49°52' W 002°32'116.6
2017-Aug-22 20:00N 49°52' W 002°33'816.6
2017-Aug-22 19:30N 49°50' W 002°45'816.1
2017-Aug-22 19:00N 49°48' W 002°57'815.9
2017-Aug-22 18:30N 49°44' W 003°08'816.0
2017-Aug-22 18:00N 49°40' W 003°19'816.0
2017-Aug-22 17:30N 49°36' W 003°30'1016.3
2017-Aug-22 16:52N 49°31' W 003°44'616.1
2017-Aug-22 16:30N 49°28' W 003°52'7513.2
2017-Aug-22 10:52N 48°49' W 005°29'6712.2
2017-Aug-22 05:24N 47°44' W 005°13'614.2
2017-Aug-22 05:00N 47°40' W 005°07'714.3
2017-Aug-22 04:30N 47°35' W 004°59'714.7
2017-Aug-22 04:01N 47°30' W 004°51'814.7
2017-Aug-22 03:30N 47°25' W 004°43'2914.8
2017-Aug-22 01:33N 47°05' W 004°12'215.4
2017-Aug-22 01:26N 47°03' W 004°10'815.2
2017-Aug-22 00:54N 46°58' W 004°02'715.1
2017-Aug-22 00:26N 46°53' W 003°54'1315.0
2017-Aug-21 23:35N 46°44' W 003°41'114.9
2017-Aug-21 23:30N 46°43' W 003°40'3315.0
2017-Aug-21 21:18N 46°21' W 003°04'6513.6
2017-Aug-21 16:33N 46°07' W 001°33'114.1
2017-Aug-21 16:29N 46°07' W 001°31'714.0
2017-Aug-21 16:00N 46°07' W 001°22'5 9.7
2017-Aug-21 15:30N 46°08' W 001°15'2 3.5
2017-Aug-21 15:00N 46°09' W 001°14'0 0.0
2017-Aug-21 14:30N 46°09' W 001°14'0 0.0
2017-Aug-21 14:00N 46°09' W 001°14'0 0.0
2017-Aug-21 13:30N 46°09' W 001°14'0 0.0
2017-Aug-21 13:00N 46°09' W 001°14'0 0.0
2017-Aug-21 12:27N 46°09' W 001°14'0 0.0
2017-Aug-21 12:00N 46°09' W 001°14'0 0.0
2017-Aug-21 11:27N 46°09' W 001°14'0 0.0
2017-Aug-21 10:54N 46°09' W 001°14'0 0.0
2017-Aug-21 10:30N 46°09' W 001°14'0 0.0
2017-Aug-21 10:00N 46°09' W 001°14'0 0.0
2017-Aug-21 09:27N 46°09' W 001°14'0 0.0
2017-Aug-21 08:57N 46°09' W 001°14'0 0.0
2017-Aug-21 08:30N 46°09' W 001°14'0 0.0
2017-Aug-21 08:00N 46°09' W 001°14'0 0.0
2017-Aug-21 07:30N 46°09' W 001°14'0 0.0
2017-Aug-21 07:00N 46°09' W 001°14'0 0.0
2017-Aug-21 06:30N 46°09' W 001°14'0 0.0
2017-Aug-21 06:00N 46°09' W 001°14'0 0.0
2017-Aug-21 05:30N 46°09' W 001°14'0 0.0
2017-Aug-21 04:57N 46°09' W 001°14'0 0.0
2017-Aug-21 04:30N 46°09' W 001°14'0 0.0
2017-Aug-21 04:00N 46°09' W 001°14'0 0.0
2017-Aug-21 03:30N 46°09' W 001°14'0 0.0
2017-Aug-21 03:00N 46°09' W 001°14'0 0.0
2017-Aug-21 02:30N 46°09' W 001°14'0 0.0
2017-Aug-21 02:00N 46°09' W 001°14'0 0.0
2017-Aug-21 01:27N 46°09' W 001°14'0 0.0
2017-Aug-21 00:57N 46°09' W 001°14'0 0.0
2017-Aug-21 00:30N 46°09' W 001°14'0 0.0
2017-Aug-21 00:00N 46°09' W 001°14'0 0.0
2017-Aug-20 23:30N 46°09' W 001°14'0 0.0
2017-Aug-20 23:00N 46°09' W 001°14'0 0.0
2017-Aug-20 22:30N 46°09' W 001°14'0 0.0
2017-Aug-20 22:00N 46°09' W 001°14'0 0.0
2017-Aug-20 21:30N 46°09' W 001°14'0 0.0
2017-Aug-20 21:00N 46°09' W 001°14'0 0.0
2017-Aug-20 20:30N 46°09' W 001°14'0 0.0
2017-Aug-20 20:00N 46°09' W 001°14'0 0.0
2017-Aug-20 19:30N 46°09' W 001°14'0 0.0
2017-Aug-20 18:59N 46°09' W 001°14'0 0.0
2017-Aug-20 18:30N 46°09' W 001°14'0 0.0
2017-Aug-20 17:54N 46°09' W 001°14'0 0.0
2017-Aug-20 17:30N 46°09' W 001°14'0 0.0
2017-Aug-20 16:59N 46°09' W 001°14'0 0.0
2017-Aug-20 16:29N 46°09' W 001°14'0 0.0
2017-Aug-20 16:00N 46°09' W 001°14'0 0.0
2017-Aug-20 15:23N 46°09' W 001°14'0 0.0
2017-Aug-20 15:00N 46°09' W 001°14'0 0.0
2017-Aug-20 14:30N 46°09' W 001°14'0 0.0
2017-Aug-20 13:59N 46°09' W 001°14'0 0.0
2017-Aug-20 13:29N 46°09' W 001°14'0 0.0
2017-Aug-20 12:59N 46°09' W 001°14'0 0.0
2017-Aug-20 12:29N 46°09' W 001°14'0 0.0
2017-Aug-20 11:59N 46°09' W 001°14'0 0.0
2017-Aug-20 11:29N 46°09' W 001°14'0 0.0
2017-Aug-20 10:59N 46°09' W 001°14'0 0.0
2017-Aug-20 10:29N 46°09' W 001°14'0 0.0
2017-Aug-20 09:59N 46°09' W 001°14'0 0.0
2017-Aug-20 09:29N 46°09' W 001°14'0 0.0
2017-Aug-20 08:59N 46°09' W 001°14'0 0.0
2017-Aug-20 08:31N 46°09' W 001°14'2 4.8
2017-Aug-20 08:00N 46°07' W 001°15'510.0
2017-Aug-20 07:30N 46°06' W 001°22'612.8
2017-Aug-20 07:00N 46°07' W 001°32'612.4
2017-Aug-20 06:30N 46°07' W 001°41'612.8
2017-Aug-20 06:00N 46°06' W 001°50'2014.1
2017-Aug-20 04:34N 46°02' W 002°18'114.0
2017-Aug-20 04:29N 46°02' W 002°20'814.3
2017-Aug-20 03:57N 46°01' W 002°31'815.1
2017-Aug-20 03:24N 46°02' W 002°43'1115.2
2017-Aug-20 02:41N 46°05' W 002°58'515.1
2017-Aug-20 02:22N 46°06' W 003°05'715.1
2017-Aug-20 01:52N 46°07' W 003°15'1415.5
2017-Aug-20 00:56N 46°09' W 003°36'1015.5
2017-Aug-20 00:20N 46°11' W 003°49'1015.3
2017-Aug-19 23:42N 46°12' W 004°03'  
Track history (hours):
 
Tides and Currents Weather Stations Pressure Air Temp Water Temp Dewpoint Dewpoint Depression Visibility Wind Speed Wind Dir Waves Ship Positions

Coe Leni

Last reported at 2017-Aug-23 16:59 UTC. Time now 2017-Aug-23 17:18 UTC.
Position N 51°24' E 002°34'.

Length 138 m; draft 6.7 m.

Type: Ship. MMSI: 636092036.

Date/timePositionNaut miles runAvg speedWind from/ knotsBaromVisibWave heightAir tempDewpointWater temp
2017-Aug-23 16:59N 51°24' E 002°34'0 0.0
2017-Aug-23 16:29N 51°24' E 002°34'0 0.0
2017-Aug-23 15:59N 51°24' E 002°34'0 0.0
2017-Aug-23 15:29N 51°24' E 002°34'0 0.0
2017-Aug-23 14:59N 51°24' E 002°34'0 0.0
2017-Aug-23 14:29N 51°24' E 002°34'0 0.0
2017-Aug-23 13:29N 51°24' E 002°34'0 0.0
2017-Aug-23 12:59N 51°24' E 002°34'0 0.1
2017-Aug-23 12:29N 51°24' E 002°34'3 5.6
2017-Aug-23 12:00N 51°22' E 002°31'714.9
2017-Aug-23 11:30N 51°19' E 002°20'714.9
2017-Aug-23 11:01N 51°15' E 002°10'714.2
2017-Aug-23 10:30N 51°11' E 002°00'713.5
2017-Aug-23 10:00N 51°08' E 001°51'612.5
2017-Aug-23 09:30N 51°04' E 001°43'612.1
2017-Aug-23 09:00N 50°60' E 001°36'611.9
2017-Aug-23 08:30N 50°55' E 001°30'611.6
2017-Aug-23 07:58N 50°50' E 001°26'612.2
2017-Aug-23 07:30N 50°45' E 001°22'1612.7
2017-Aug-23 06:14N 50°34' E 001°03'413.0
2017-Aug-23 05:53N 50°31' E 000°57'2412.9
2017-Aug-23 04:01N 50°24' E 000°21'012.5
2017-Aug-23 04:00N 50°24' E 000°21'612.3
2017-Aug-23 03:29N 50°22' E 000°11'612.4
2017-Aug-23 03:00N 50°21' E 000°02'612.6
2017-Aug-23 02:30N 50°19' W 000°07'612.4
2017-Aug-23 02:00N 50°17' W 000°17'1012.2
2017-Aug-23 01:11N 50°15' W 000°32'212.4
2017-Aug-23 01:00N 50°14' W 000°35'612.7
2017-Aug-23 00:31N 50°12' W 000°44'713.3
2017-Aug-23 00:00N 50°10' W 000°54'714.2
2017-Aug-22 23:31N 50°09' W 001°05'815.1
2017-Aug-22 23:01N 50°06' W 001°16'815.9
2017-Aug-22 22:31N 50°04' W 001°28'1617.0
2017-Aug-22 21:33N 49°59' W 001°52'117.0
2017-Aug-22 21:30N 49°59' W 001°54'1117.8
2017-Aug-22 20:55N 49°56' W 002°10'1517.2
2017-Aug-22 20:03N 49°52' W 002°32'116.6
2017-Aug-22 20:00N 49°52' W 002°33'816.6
2017-Aug-22 19:30N 49°50' W 002°45'816.1
2017-Aug-22 19:00N 49°48' W 002°57'815.9
2017-Aug-22 18:30N 49°44' W 003°08'816.0
2017-Aug-22 18:00N 49°40' W 003°19'816.0
2017-Aug-22 17:30N 49°36' W 003°30'1016.3
2017-Aug-22 16:52N 49°31' W 003°44'616.1
2017-Aug-22 16:30N 49°28' W 003°52'7513.2
2017-Aug-22 10:52N 48°49' W 005°29'6712.2
2017-Aug-22 05:24N 47°44' W 005°13'614.2
2017-Aug-22 05:00N 47°40' W 005°07'714.3
2017-Aug-22 04:30N 47°35' W 004°59'714.7
2017-Aug-22 04:01N 47°30' W 004°51'814.7
2017-Aug-22 03:30N 47°25' W 004°43'2914.8
2017-Aug-22 01:33N 47°05' W 004°12'215.4
2017-Aug-22 01:26N 47°03' W 004°10'815.2
2017-Aug-22 00:54N 46°58' W 004°02'715.1
2017-Aug-22 00:26N 46°53' W 003°54'1315.0
2017-Aug-21 23:35N 46°44' W 003°41'114.9
2017-Aug-21 23:30N 46°43' W 003°40'3315.0
2017-Aug-21 21:18N 46°21' W 003°04'6513.6
2017-Aug-21 16:33N 46°07' W 001°33'114.1
2017-Aug-21 16:29N 46°07' W 001°31'714.0
2017-Aug-21 16:00N 46°07' W 001°22'5 9.7
2017-Aug-21 15:30N 46°08' W 001°15'2 3.5
2017-Aug-21 15:00N 46°09' W 001°14'0 0.0
2017-Aug-21 14:30N 46°09' W 001°14'0 0.0
2017-Aug-21 14:00N 46°09' W 001°14'0 0.0
2017-Aug-21 13:30N 46°09' W 001°14'0 0.0
2017-Aug-21 13:00N 46°09' W 001°14'0 0.0
2017-Aug-21 12:27N 46°09' W 001°14'0 0.0
2017-Aug-21 12:00N 46°09' W 001°14'0 0.0
2017-Aug-21 11:27N 46°09' W 001°14'0 0.0
2017-Aug-21 10:54N 46°09' W 001°14'0 0.0
2017-Aug-21 10:30N 46°09' W 001°14'0 0.0
2017-Aug-21 10:00N 46°09' W 001°14'0 0.0
2017-Aug-21 09:27N 46°09' W 001°14'0 0.0
2017-Aug-21 08:57N 46°09' W 001°14'0 0.0
2017-Aug-21 08:30N 46°09' W 001°14'0 0.0
2017-Aug-21 08:00N 46°09' W 001°14'0 0.0
2017-Aug-21 07:30N 46°09' W 001°14'0 0.0
2017-Aug-21 07:00N 46°09' W 001°14'0 0.0
2017-Aug-21 06:30N 46°09' W 001°14'0 0.0
2017-Aug-21 06:00N 46°09' W 001°14'0 0.0
2017-Aug-21 05:30N 46°09' W 001°14'0 0.0
2017-Aug-21 04:57N 46°09' W 001°14'0 0.0
2017-Aug-21 04:30N 46°09' W 001°14'0 0.0
2017-Aug-21 04:00N 46°09' W 001°14'0 0.0
2017-Aug-21 03:30N 46°09' W 001°14'0 0.0
2017-Aug-21 03:00N 46°09' W 001°14'0 0.0
2017-Aug-21 02:30N 46°09' W 001°14'0 0.0
2017-Aug-21 02:00N 46°09' W 001°14'0 0.0
2017-Aug-21 01:27N 46°09' W 001°14'0 0.0
2017-Aug-21 00:57N 46°09' W 001°14'0 0.0
2017-Aug-21 00:30N 46°09' W 001°14'0 0.0
2017-Aug-21 00:00N 46°09' W 001°14'0 0.0
2017-Aug-20 23:30N 46°09' W 001°14'0 0.0
2017-Aug-20 23:00N 46°09' W 001°14'0 0.0
2017-Aug-20 22:30N 46°09' W 001°14'0 0.0
2017-Aug-20 22:00N 46°09' W 001°14'0 0.0
2017-Aug-20 21:30N 46°09' W 001°14'0 0.0
2017-Aug-20 21:00N 46°09' W 001°14'0 0.0
2017-Aug-20 20:30N 46°09' W 001°14'0 0.0
2017-Aug-20 20:00N 46°09' W 001°14'0 0.0
2017-Aug-20 19:30N 46°09' W 001°14'0 0.0
2017-Aug-20 18:59N 46°09' W 001°14'0 0.0
2017-Aug-20 18:30N 46°09' W 001°14'0 0.0
2017-Aug-20 17:54N 46°09' W 001°14'0 0.0
2017-Aug-20 17:30N 46°09' W 001°14'0 0.0
2017-Aug-20 16:59N 46°09' W 001°14'0 0.0
2017-Aug-20 16:29N 46°09' W 001°14'0 0.0
2017-Aug-20 16:00N 46°09' W 001°14'0 0.0
2017-Aug-20 15:23N 46°09' W 001°14'0 0.0
2017-Aug-20 15:00N 46°09' W 001°14'0 0.0
2017-Aug-20 14:30N 46°09' W 001°14'0 0.0
2017-Aug-20 13:59N 46°09' W 001°14'0 0.0
2017-Aug-20 13:29N 46°09' W 001°14'0 0.0
2017-Aug-20 12:59N 46°09' W 001°14'0 0.0
2017-Aug-20 12:29N 46°09' W 001°14'0 0.0
2017-Aug-20 11:59N 46°09' W 001°14'0 0.0
2017-Aug-20 11:29N 46°09' W 001°14'0 0.0
2017-Aug-20 10:59N 46°09' W 001°14'0 0.0
2017-Aug-20 10:29N 46°09' W 001°14'0 0.0
2017-Aug-20 09:59N 46°09' W 001°14'0 0.0
2017-Aug-20 09:29N 46°09' W 001°14'0 0.0
2017-Aug-20 08:59N 46°09' W 001°14'0 0.0
2017-Aug-20 08:31N 46°09' W 001°14'2 4.8
2017-Aug-20 08:00N 46°07' W 001°15'510.0
2017-Aug-20 07:30N 46°06' W 001°22'612.8
2017-Aug-20 07:00N 46°07' W 001°32'612.4
2017-Aug-20 06:30N 46°07' W 001°41'612.8
2017-Aug-20 06:00N 46°06' W 001°50'2014.1
2017-Aug-20 04:34N 46°02' W 002°18'114.0
2017-Aug-20 04:29N 46°02' W 002°20'814.3
2017-Aug-20 03:57N 46°01' W 002°31'815.1
2017-Aug-20 03:24N 46°02' W 002°43'1115.2
2017-Aug-20 02:41N 46°05' W 002°58'515.1
2017-Aug-20 02:22N 46°06' W 003°05'715.1
2017-Aug-20 01:52N 46°07' W 003°15'1415.5
2017-Aug-20 00:56N 46°09' W 003°36'1015.5
2017-Aug-20 00:20N 46°11' W 003°49'1015.3
2017-Aug-19 23:42N 46°12' W 004°03'  

Dump ship's entire track history